createdAt,value
2023-03-26T00:01:22.888Z,3.10
2023-03-26T00:03:51.343Z,3.88
2023-03-26T00:06:19.498Z,3.40
2023-03-26T00:08:47.280Z,2.92
2023-03-26T00:11:16.029Z,4.10
2023-03-26T00:13:44.812Z,3.10
2023-03-26T00:16:13.160Z,2.67
2023-03-26T00:18:42.892Z,2.80
2023-03-26T00:21:13.598Z,2.05
2023-03-26T00:23:41.632Z,2.15
2023-03-26T00:26:09.935Z,2.28
2023-03-26T00:28:37.815Z,1.85
2023-03-26T00:31:07.634Z,2.92
2023-03-26T00:33:35.567Z,3.55
2023-03-26T00:36:07.014Z,2.58
2023-03-26T00:38:34.829Z,1.35
2023-03-26T00:41:02.165Z,3.30
2023-03-26T00:43:29.870Z,3.20
2023-03-26T00:45:57.586Z,2.78
2023-03-26T00:48:37.912Z,3.30
2023-03-26T00:51:14.701Z,3.28
2023-03-26T00:53:43.396Z,3.60
2023-03-26T00:56:11.228Z,4.35
2023-03-26T00:58:39.360Z,4.78
2023-03-26T01:01:09.158Z,4.25
2023-03-26T01:03:38.539Z,4.43
2023-03-26T01:06:08.061Z,4.40
2023-03-26T01:08:39.868Z,5.53
2023-03-26T01:11:10.794Z,5.45
2023-03-26T01:13:39.148Z,5.82
2023-03-26T01:16:14.234Z,4.80
2023-03-26T01:18:42.225Z,5.28
2023-03-26T01:21:09.703Z,6.80
2023-03-26T01:23:44.755Z,4.93
2023-03-26T01:26:26.573Z,5.60
2023-03-26T01:28:56.754Z,7.63
2023-03-26T01:31:30.129Z,6.55
2023-03-26T01:34:04.094Z,4.00
2023-03-26T01:36:41.826Z,5.18
2023-03-26T01:39:16.547Z,5.28
2023-03-26T01:41:48.877Z,3.78
2023-03-26T01:44:23.104Z,5.72
2023-03-26T01:46:52.179Z,3.47
2023-03-26T01:49:20.465Z,5.22
2023-03-26T01:51:48.279Z,3.45
2023-03-26T01:54:19.859Z,4.95
2023-03-26T01:57:00.528Z,4.57
2023-03-26T01:59:45.408Z,5.05
2023-03-26T02:02:15.777Z,3.85
2023-03-26T02:04:53.122Z,3.67
2023-03-26T02:07:25.504Z,4.97
2023-03-26T02:10:01.574Z,3.40
2023-03-26T02:12:30.794Z,8.88
2023-03-26T02:15:01.187Z,3.80
2023-03-26T02:17:28.981Z,5.38
2023-03-26T02:19:57.012Z,6.88
2023-03-26T02:22:24.469Z,4.53
2023-03-26T02:24:52.245Z,4.78
2023-03-26T02:27:19.571Z,5.45
2023-03-26T02:29:48.792Z,5.43
2023-03-26T02:32:16.122Z,5.32
2023-03-26T02:34:43.832Z,4.70
2023-03-26T02:37:11.181Z,3.00
2023-03-26T02:39:38.877Z,3.97
2023-03-26T02:42:06.362Z,4.80
2023-03-26T02:44:34.174Z,5.35
2023-03-26T02:47:03.031Z,4.38
2023-03-26T02:49:30.816Z,4.50
2023-03-26T02:51:58.158Z,7.68
2023-03-26T02:54:25.969Z,6.50
2023-03-26T02:56:53.639Z,4.22
2023-03-26T02:59:21.437Z,3.90
2023-03-26T03:01:48.744Z,3.47
2023-03-26T03:04:17.894Z,3.30
2023-03-26T03:06:45.348Z,3.92
2023-03-26T03:09:13.217Z,3.90
2023-03-26T03:11:41.286Z,4.40
2023-03-26T03:14:08.964Z,3.10
2023-03-26T03:16:36.386Z,3.95
2023-03-26T03:19:04.136Z,3.05
2023-03-26T03:21:32.985Z,2.97
2023-03-26T03:24:00.767Z,3.00
2023-03-26T03:26:28.506Z,3.88
2023-03-26T03:28:57.773Z,4.32
2023-03-26T03:31:26.546Z,3.20
2023-03-26T03:33:54.430Z,3.33
2023-03-26T03:36:23.599Z,6.88
2023-03-26T03:38:52.938Z,3.05
2023-03-26T03:41:20.331Z,2.22
2023-03-26T03:43:48.015Z,3.72
2023-03-26T03:46:15.435Z,2.85
2023-03-26T03:48:43.213Z,3.13
2023-03-26T03:51:10.553Z,2.88
2023-03-26T03:53:38.311Z,3.17
2023-03-26T03:56:08.226Z,2.33
2023-03-26T03:58:36.508Z,2.20
2023-03-26T04:01:03.925Z,3.88
2023-03-26T04:03:33.671Z,2.50
2023-03-26T04:06:02.168Z,2.63
2023-03-26T04:08:29.882Z,2.08
2023-03-26T04:10:57.266Z,3.67
2023-03-26T04:13:26.438Z,2.60
2023-03-26T04:15:54.350Z,2.58
2023-03-26T04:18:22.755Z,3.20
2023-03-26T04:20:50.038Z,3.25
2023-03-26T04:23:19.021Z,3.50
2023-03-26T04:25:50.091Z,2.58
2023-03-26T04:28:28.509Z,5.60
2023-03-26T04:30:58.074Z,2.08
2023-03-26T04:33:26.490Z,4.15
2023-03-26T04:35:54.208Z,2.83
2023-03-26T04:38:22.719Z,2.85
2023-03-26T04:40:50.139Z,2.42
2023-03-26T04:43:18.229Z,1.98
2023-03-26T04:45:47.017Z,2.85
2023-03-26T04:48:14.745Z,2.50
2023-03-26T04:50:43.234Z,3.13
2023-03-26T04:53:14.218Z,2.63
2023-03-26T04:55:47.122Z,2.03
2023-03-26T04:58:15.200Z,2.67
2023-03-26T05:00:42.954Z,1.65
2023-03-26T05:03:12.362Z,2.03
2023-03-26T05:05:40.195Z,1.85
2023-03-26T05:08:07.917Z,1.98
2023-03-26T05:10:35.346Z,1.85
2023-03-26T05:13:03.004Z,1.90
2023-03-26T05:15:30.374Z,1.42
2023-03-26T05:17:58.458Z,2.92
2023-03-26T05:20:29.334Z,2.83
2023-03-26T05:22:57.294Z,1.65
2023-03-26T05:25:24.637Z,2.28
2023-03-26T05:27:52.608Z,2.78
2023-03-26T05:30:21.777Z,3.10
2023-03-26T05:32:49.929Z,3.58
2023-03-26T05:35:18.309Z,4.38
2023-03-26T05:37:48.413Z,2.75
2023-03-26T05:40:16.348Z,3.95
2023-03-26T05:42:45.186Z,3.38
2023-03-26T05:45:14.630Z,2.67
2023-03-26T05:47:42.672Z,3.15
2023-03-26T05:50:12.073Z,6.60
2023-03-26T05:52:40.039Z,3.60
2023-03-26T05:55:09.711Z,4.63
2023-03-26T05:57:37.748Z,4.05
2023-03-26T06:00:07.396Z,3.33
2023-03-26T06:02:35.316Z,5.28
2023-03-26T06:05:02.887Z,5.43
2023-03-26T06:07:30.830Z,3.63
2023-03-26T06:09:58.164Z,2.80
2023-03-26T06:12:27.487Z,2.97
2023-03-26T06:14:54.847Z,2.38
2023-03-26T06:17:22.643Z,3.40
2023-03-26T06:19:50.292Z,4.75
2023-03-26T06:22:18.115Z,21.20
2023-03-26T06:24:45.628Z,13.98
2023-03-26T06:27:13.455Z,23.75
2023-03-26T06:29:42.380Z,14.90
2023-03-26T06:32:19.556Z,4.85
2023-03-26T06:34:47.770Z,4.25
2023-03-26T06:37:16.064Z,2.65
2023-03-26T06:39:43.496Z,5.20
2023-03-26T06:42:11.222Z,4.20
2023-03-26T06:44:38.989Z,2.63
2023-03-26T06:47:08.120Z,2.40
2023-03-26T06:49:35.586Z,4.95
2023-03-26T06:52:03.683Z,3.83
2023-03-26T06:54:31.112Z,2.92
2023-03-26T06:56:59.042Z,6.13
2023-03-26T06:59:26.530Z,4.38
2023-03-26T07:01:54.348Z,4.97
2023-03-26T07:04:23.147Z,3.58
2023-03-26T07:06:51.371Z,4.20
2023-03-26T07:09:18.817Z,4.30
2023-03-26T07:11:46.523Z,5.05
2023-03-26T07:14:13.941Z,5.68
2023-03-26T07:16:41.772Z,3.72
2023-03-26T07:19:09.190Z,5.30
2023-03-26T07:21:39.065Z,3.15
2023-03-26T07:24:09.321Z,2.67
2023-03-26T07:26:48.173Z,3.50
2023-03-26T07:29:23.921Z,5.78
2023-03-26T07:32:00.598Z,2.75
2023-03-26T07:34:40.470Z,3.92
2023-03-26T07:37:23.901Z,3.83
2023-03-26T07:39:55.687Z,2.20
2023-03-26T07:42:36.063Z,3.25
2023-03-26T07:45:19.535Z,4.55
2023-03-26T07:47:47.938Z,3.10
2023-03-26T07:50:18.773Z,4.03
2023-03-26T07:52:49.058Z,3.88
2023-03-26T07:55:18.071Z,3.83
2023-03-26T07:58:02.177Z,3.28
2023-03-26T08:00:34.869Z,2.80
2023-03-26T08:03:31.769Z,4.85
2023-03-26T08:06:07.604Z,3.72
2023-03-26T08:08:46.650Z,3.22
2023-03-26T08:13:58.485Z,3.58
2023-03-26T08:16:31.300Z,2.42
2023-03-26T08:19:05.384Z,2.70
2023-03-26T08:21:38.166Z,3.58
2023-03-26T08:24:15.211Z,2.85
2023-03-26T08:26:50.316Z,2.10
2023-03-26T08:29:24.986Z,3.72
2023-03-26T08:31:54.052Z,3.45
2023-03-26T08:34:21.792Z,2.33
2023-03-26T08:36:49.162Z,2.65
2023-03-26T08:39:18.337Z,2.35
2023-03-26T08:42:20.755Z,4.10
2023-03-26T08:45:26.506Z,2.17
2023-03-26T08:48:26.699Z,3.10
2023-03-26T08:51:31.917Z,5.22
2023-03-26T08:54:40.617Z,4.07
2023-03-26T08:57:38.036Z,6.85
2023-03-26T09:00:25.465Z,3.90
2023-03-26T09:03:17.262Z,5.65
2023-03-26T09:06:08.824Z,3.70
2023-03-26T09:09:20.391Z,5.95
2023-03-26T09:12:31.293Z,3.80
2023-03-26T09:15:30.102Z,2.38
2023-03-26T09:18:44.508Z,4.55
2023-03-26T09:21:35.920Z,3.92
2023-03-26T09:24:40.858Z,5.38
2023-03-26T09:27:29.914Z,3.67
2023-03-26T09:30:33.092Z,8.10
2023-03-26T09:33:28.100Z,3.53
2023-03-26T09:36:18.462Z,4.70
2023-03-26T09:38:52.888Z,3.20
2023-03-26T09:41:33.732Z,2.63
2023-03-26T09:44:33.830Z,4.53
2023-03-26T09:47:27.723Z,2.65
2023-03-26T09:50:09.202Z,2.90
2023-03-26T09:52:55.484Z,3.45
2023-03-26T09:55:58.796Z,5.97
2023-03-26T09:58:47.624Z,3.85
2023-03-26T10:01:24.916Z,3.55
2023-03-26T10:04:02.494Z,5.35
2023-03-26T10:06:43.264Z,3.25
2023-03-26T10:09:38.931Z,3.75
2023-03-26T10:12:18.972Z,4.70
2023-03-26T10:14:54.906Z,3.03
2023-03-26T10:17:37.486Z,3.08
2023-03-26T10:20:26.651Z,2.75
2023-03-26T10:23:07.468Z,4.40
2023-03-26T10:25:53.514Z,9.07
2023-03-26T10:28:33.298Z,6.15
2023-03-26T10:31:29.914Z,7.03
2023-03-26T10:34:10.018Z,4.75
2023-03-26T10:37:10.122Z,4.85
2023-03-26T10:40:06.202Z,2.70
2023-03-26T10:42:49.406Z,3.45
2023-03-26T10:45:31.546Z,4.40
2023-03-26T10:48:36.771Z,7.75
2023-03-26T10:51:27.511Z,7.45
2023-03-26T10:54:00.916Z,4.13
2023-03-26T10:56:32.895Z,6.25
2023-03-26T10:59:05.827Z,3.85
2023-03-26T11:01:41.833Z,6.03
2023-03-26T11:04:23.439Z,5.70
2023-03-26T11:07:02.045Z,6.70
2023-03-26T11:09:40.887Z,3.75
2023-03-26T11:12:26.518Z,5.15
2023-03-26T11:15:16.515Z,4.70
2023-03-26T11:17:52.233Z,7.28
2023-03-26T11:20:31.819Z,5.60
2023-03-26T11:23:14.818Z,3.28
2023-03-26T11:25:57.634Z,4.00
2023-03-26T11:29:03.831Z,4.63
2023-03-26T11:31:51.714Z,7.50
2023-03-26T11:34:22.777Z,5.05
2023-03-26T11:36:52.923Z,6.00
2023-03-26T11:39:25.588Z,3.95
2023-03-26T11:42:04.120Z,4.22
2023-03-26T11:44:38.329Z,6.38
2023-03-26T11:47:09.671Z,3.33
2023-03-26T11:49:38.685Z,4.30
2023-03-26T11:52:06.562Z,5.07
2023-03-26T11:54:34.349Z,4.80
2023-03-26T11:57:07.179Z,6.85
2023-03-26T11:59:49.016Z,4.40
2023-03-26T12:02:29.210Z,3.88
2023-03-26T12:05:13.249Z,2.65
2023-03-26T12:07:46.527Z,4.97
2023-03-26T12:10:27.800Z,3.92
2023-03-26T12:12:59.977Z,3.95
2023-03-26T12:15:30.323Z,3.20
2023-03-26T12:17:59.326Z,3.60
2023-03-26T12:20:36.141Z,3.83
2023-03-26T12:23:05.684Z,6.47
2023-03-26T12:25:35.218Z,4.30
2023-03-26T12:28:05.745Z,3.88
2023-03-26T12:30:35.484Z,2.83
2023-03-26T12:33:06.074Z,6.90
2023-03-26T12:35:35.628Z,4.53
2023-03-26T12:38:21.839Z,5.00
2023-03-26T12:41:03.153Z,7.15
2023-03-26T12:44:55.788Z,5.25
2023-03-26T12:47:56.130Z,3.28
2023-03-26T12:49:16.054Z,2.97
2023-03-26T12:51:49.713Z,3.28
2023-03-26T12:54:43.180Z,3.25
2023-03-26T12:57:20.165Z,3.58
2023-03-26T13:00:42.392Z,3.03
2023-03-26T13:03:33.250Z,2.95
2023-03-26T13:06:22.914Z,2.10
2023-03-26T13:09:20.074Z,4.07
2023-03-26T13:12:00.697Z,3.33
2023-03-26T13:14:42.939Z,3.75
2023-03-26T13:17:22.117Z,4.35
2023-03-26T13:20:00.990Z,3.80
2023-03-26T13:22:39.824Z,4.80
2023-03-26T13:25:18.886Z,2.75
2023-03-26T13:27:58.390Z,6.82
2023-03-26T13:30:34.302Z,5.63
2023-03-26T13:33:26.711Z,3.75
2023-03-26T13:36:21.783Z,3.78
2023-03-26T13:39:02.635Z,4.30
2023-03-26T13:41:41.505Z,5.60
2023-03-26T13:44:17.513Z,4.47
2023-03-26T13:46:49.819Z,4.97
2023-03-26T13:49:25.192Z,5.85
2023-03-26T13:51:58.822Z,3.05
2023-03-26T13:54:32.761Z,5.18
2023-03-26T13:57:05.612Z,6.07
2023-03-26T13:59:38.523Z,6.35
2023-03-26T14:02:11.970Z,5.07
2023-03-26T14:04:46.425Z,4.68
2023-03-26T14:07:20.883Z,5.82
2023-03-26T14:09:55.486Z,11.85
2023-03-26T14:12:40.319Z,7.65
2023-03-26T14:17:48.368Z,7.60
2023-03-26T14:20:41.664Z,11.25
2023-03-26T14:23:23.706Z,7.50
2023-03-26T14:26:06.760Z,5.57
2023-03-26T14:28:58.438Z,8.50
2023-03-26T14:31:31.318Z,3.65
2023-03-26T14:34:24.209Z,9.60
2023-03-26T14:37:29.756Z,2.70
2023-03-26T14:40:31.351Z,2.90
2023-03-26T14:43:12.196Z,2.92
2023-03-26T14:45:58.381Z,3.55
2023-03-26T14:49:10.072Z,2.97
2023-03-26T14:52:01.232Z,6.75
2023-03-26T14:54:33.246Z,6.22
2023-03-26T14:57:40.508Z,7.70
2023-03-26T15:00:37.425Z,5.75
2023-03-26T15:03:37.923Z,5.35
2023-03-26T15:06:40.621Z,3.83
2023-03-26T15:09:46.003Z,5.22
2023-03-26T15:12:27.562Z,6.05
2023-03-26T15:15:25.930Z,4.15
2023-03-26T15:18:41.316Z,3.20
2023-03-26T15:21:37.581Z,3.60
2023-03-26T15:24:34.881Z,3.85
2023-03-26T15:27:27.190Z,3.15
2023-03-26T15:30:31.231Z,2.60
2023-03-26T15:33:25.889Z,5.15
2023-03-26T15:36:27.590Z,6.07
2023-03-26T15:39:30.265Z,3.30
2023-03-26T15:42:07.864Z,2.75
2023-03-26T15:44:54.080Z,3.10
2023-03-26T15:47:54.355Z,4.43
2023-03-26T15:50:40.315Z,2.13
2023-03-26T15:53:22.376Z,3.17
2023-03-26T15:56:10.411Z,3.50
2023-03-26T15:58:48.998Z,2.60
2023-03-26T16:01:32.593Z,2.72
2023-03-26T16:04:18.289Z,3.15
2023-03-26T16:06:57.232Z,3.20
2023-03-26T16:09:49.996Z,3.75
2023-03-26T16:12:33.338Z,2.67
2023-03-26T16:15:26.751Z,5.70
2023-03-26T16:18:29.901Z,11.30
2023-03-26T16:21:32.785Z,8.90
2023-03-26T16:24:23.122Z,9.52
2023-03-26T16:27:05.826Z,6.07
2023-03-26T16:29:54.613Z,3.70
2023-03-26T16:32:27.097Z,5.28
2023-03-26T16:34:57.701Z,4.45
2023-03-26T16:37:42.825Z,3.47
2023-03-26T16:40:33.863Z,4.40
2023-03-26T16:43:18.727Z,6.55
2023-03-26T16:45:55.259Z,6.88
2023-03-26T16:48:32.423Z,7.38
2023-03-26T16:51:08.287Z,7.35
2023-03-26T16:53:42.618Z,7.00
2023-03-26T16:56:16.460Z,4.30
2023-03-26T16:58:54.442Z,4.93
2023-03-26T17:01:34.677Z,6.30
2023-03-26T17:04:09.269Z,7.70
2023-03-26T17:06:55.850Z,6.70
2023-03-26T17:09:33.430Z,8.00
2023-03-26T17:12:07.298Z,8.93
2023-03-26T17:14:46.484Z,7.35
2023-03-26T17:17:31.496Z,9.73
2023-03-26T17:20:09.521Z,9.00
2023-03-26T17:22:42.655Z,8.15
2023-03-26T17:25:25.485Z,11.27
2023-03-26T17:28:11.197Z,5.60
2023-03-26T17:30:53.215Z,7.50
2023-03-26T17:33:27.626Z,8.10
2023-03-26T17:36:28.135Z,7.95
2023-03-26T17:39:18.674Z,6.53
2023-03-26T17:42:05.108Z,7.25
2023-03-26T17:44:41.383Z,8.13
2023-03-26T17:47:27.072Z,9.40
2023-03-26T17:50:01.246Z,8.82
2023-03-26T17:52:41.837Z,6.90
2023-03-26T17:55:15.756Z,8.05
2023-03-26T17:57:45.575Z,7.40
2023-03-26T18:00:20.853Z,8.77
2023-03-26T18:02:54.552Z,6.38
2023-03-26T18:05:27.047Z,8.73
2023-03-26T18:08:33.728Z,5.45
2023-03-26T18:11:22.029Z,6.28
2023-03-26T18:14:32.604Z,6.57
2023-03-26T18:17:01.777Z,7.07
2023-03-26T18:19:29.685Z,5.57
2023-03-26T18:21:59.512Z,6.10
2023-03-26T18:24:30.677Z,6.63
2023-03-26T18:27:01.977Z,6.10
2023-03-26T18:29:31.205Z,7.00
2023-03-26T18:32:00.872Z,7.13
2023-03-26T18:34:31.454Z,7.05
2023-03-26T18:37:18.489Z,5.55
2023-03-26T18:39:58.754Z,7.35
2023-03-26T18:42:28.371Z,6.38
2023-03-26T18:45:00.857Z,5.22
2023-03-26T18:47:31.507Z,7.32
2023-03-26T18:50:00.229Z,5.18
2023-03-26T18:52:30.108Z,4.50
2023-03-26T18:54:59.976Z,4.07
2023-03-26T18:57:29.522Z,3.88
2023-03-26T19:00:08.564Z,4.95
2023-03-26T19:02:38.433Z,6.25
2023-03-26T19:05:07.360Z,7.20
2023-03-26T19:07:35.798Z,4.75
2023-03-26T19:10:05.769Z,7.28
2023-03-26T19:12:33.612Z,6.93
2023-03-26T19:15:05.169Z,6.68
2023-03-26T19:17:38.808Z,5.65
2023-03-26T19:20:13.105Z,8.30
2023-03-26T19:22:41.674Z,6.78
2023-03-26T19:25:21.291Z,8.30
2023-03-26T19:27:49.409Z,6.15
2023-03-26T19:30:23.077Z,7.18
2023-03-26T19:32:53.690Z,7.57
2023-03-26T19:35:22.925Z,8.35
2023-03-26T19:37:52.587Z,9.45
2023-03-26T19:40:23.340Z,7.63
2023-03-26T19:42:51.233Z,7.85
2023-03-26T19:45:20.536Z,8.32
2023-03-26T19:48:00.104Z,7.88
2023-03-26T19:50:35.089Z,7.90
2023-03-26T19:53:19.683Z,7.75
2023-03-26T19:55:56.361Z,8.68
2023-03-26T19:58:25.279Z,5.35
2023-03-26T20:00:53.109Z,6.88
2023-03-26T20:03:27.769Z,9.55
2023-03-26T20:05:55.388Z,7.07
2023-03-26T20:08:23.199Z,8.57
2023-03-26T20:10:50.832Z,8.45
2023-03-26T20:13:20.504Z,7.88
2023-03-26T20:16:04.993Z,9.45
2023-03-26T20:18:33.696Z,9.63
2023-03-26T20:21:01.266Z,10.55
2023-03-26T20:23:29.216Z,12.15
2023-03-26T20:25:57.015Z,9.10
2023-03-26T20:28:26.541Z,10.27
2023-03-26T20:30:54.794Z,10.02
2023-03-26T20:33:24.986Z,11.70
2023-03-26T20:35:52.576Z,9.18
2023-03-26T20:38:26.518Z,10.93
2023-03-26T20:41:00.497Z,8.93
2023-03-26T20:43:29.973Z,11.43
2023-03-26T20:45:57.828Z,11.90
2023-03-26T20:48:25.821Z,10.50
2023-03-26T20:50:53.403Z,14.75
2023-03-26T20:53:21.297Z,15.75
2023-03-26T20:55:51.080Z,10.02
2023-03-26T20:58:31.332Z,9.38
2023-03-26T21:01:02.066Z,10.68
2023-03-26T21:03:30.463Z,9.98
2023-03-26T21:06:00.543Z,10.98
2023-03-26T21:08:29.159Z,8.65
2023-03-26T21:10:58.169Z,10.27
2023-03-26T21:13:36.817Z,9.20
2023-03-26T21:16:07.370Z,9.35
2023-03-26T21:18:36.110Z,11.25
2023-03-26T21:21:21.589Z,11.40
2023-03-26T21:23:55.348Z,11.98
2023-03-26T21:26:28.661Z,9.30
2023-03-26T21:28:56.743Z,9.15
2023-03-26T21:31:26.467Z,6.72
2023-03-26T21:33:54.902Z,9.30
2023-03-26T21:36:25.924Z,8.75
2023-03-26T21:38:54.792Z,8.32
2023-03-26T21:41:33.167Z,8.85
2023-03-26T21:46:30.320Z,7.20
2023-03-26T21:48:58.897Z,7.90
2023-03-26T21:51:27.102Z,8.57
2023-03-26T21:53:55.349Z,7.13
2023-03-26T21:56:37.451Z,7.10
2023-03-26T21:59:14.753Z,6.63
2023-03-26T22:01:51.177Z,6.82
2023-03-26T22:04:28.276Z,10.35
2023-03-26T22:06:59.562Z,7.63
2023-03-26T22:12:01.340Z,6.50
2023-03-26T22:14:29.229Z,8.30
2023-03-26T22:16:58.120Z,8.98
2023-03-26T22:19:25.943Z,10.00
2023-03-26T22:21:53.448Z,8.02
2023-03-26T22:24:21.265Z,8.32
2023-03-26T22:26:48.678Z,9.75
2023-03-26T22:29:16.957Z,9.05
2023-03-26T22:31:44.405Z,10.80
2023-03-26T22:34:13.683Z,9.77
2023-03-26T22:36:41.209Z,7.97
2023-03-26T22:39:09.152Z,8.90
2023-03-26T22:41:36.594Z,13.18
2023-03-26T22:44:16.822Z,14.18
2023-03-26T22:46:46.972Z,13.38
2023-03-26T22:49:16.169Z,15.80
2023-03-26T22:51:44.091Z,17.25
2023-03-26T22:54:12.015Z,13.23
2023-03-26T22:56:39.644Z,10.80
2023-03-26T22:59:07.818Z,12.15
2023-03-26T23:01:35.365Z,10.07
2023-03-26T23:04:03.300Z,7.85
2023-03-26T23:06:32.526Z,9.32
2023-03-26T23:09:00.339Z,10.27
2023-03-26T23:11:27.786Z,9.93
2023-03-26T23:13:55.653Z,12.05
2023-03-26T23:16:23.084Z,9.80
2023-03-26T23:18:50.936Z,11.98
2023-03-26T23:21:20.973Z,8.27
2023-03-26T23:23:50.577Z,12.23
2023-03-26T23:26:18.022Z,10.50
2023-03-26T23:28:45.930Z,8.75
2023-03-26T23:31:13.516Z,11.07
2023-03-26T23:33:42.173Z,8.98
2023-03-26T23:36:10.199Z,10.20
2023-03-26T23:38:43.252Z,8.38
2023-03-26T23:41:14.002Z,9.50
2023-03-26T23:43:53.694Z,11.48
2023-03-26T23:46:23.574Z,7.78
2023-03-26T23:48:51.971Z,8.18
2023-03-26T23:51:19.869Z,9.48
2023-03-26T23:53:49.031Z,8.90
2023-03-26T23:56:17.956Z,7.28
2023-03-26T23:58:45.829Z,10.02
